Time;durP1;ratioP1;P1;durP2;ratioP2;P2;SDS_P1;SDS_P2;PMS_P1;PMS_P2;Temp;Humidity;BMP_temperature;BMP_pressure;BME280_temperature;BME280_humidity;BME280_pressure;Samples;Min_cycle;Max_cycle;Signal;HPM_P1;HPM_P2
2023/01/27 00:00:14;;;;;;;24.33;16.17;;;2.00;99.90;;;;;;5053319;28;20095;-84
2023/01/27 00:02:41;;;;;;;31.08;18.13;;;1.70;99.90;;;;;;5053437;28;20120;-84
2023/01/27 00:05:08;;;;;;;102.25;43.13;;;2.00;99.90;;;;;;5053813;28;20032;-84
2023/01/27 00:07:34;;;;;;;38.53;21.00;;;2.00;99.90;;;;;;5053199;28;20509;-84
2023/01/27 00:10:00;;;;;;;86.10;36.63;;;2.30;99.90;;;;;;5053108;28;20021;-84
2023/01/27 00:15:13;;;;;;;24.92;15.52;;;1.70;99.90;;;;;;5053721;28;20032;-84
2023/01/27 00:17:38;;;;;;;76.47;33.38;;;1.80;99.90;;;;;;5053204;28;20397;-84
2023/01/27 00:20:05;;;;;;;48.13;23.58;;;2.20;99.90;;;;;;5053367;28;20029;-84
2023/01/27 00:25:16;;;;;;;76.55;35.47;;;2.00;99.90;;;;;;5051482;28;20455;-84
2023/01/27 00:27:42;;;;;;;27.38;17.33;;;1.80;99.90;;;;;;5052556;28;20090;-84
2023/01/27 00:30:09;;;;;;;55.45;27.17;;;2.10;99.90;;;;;;5052858;28;20029;-84
2023/01/27 00:35:19;;;;;;;35.38;19.90;;;2.20;99.90;;;;;;5053684;28;20024;-84
2023/01/27 00:37:46;;;;;;;35.88;19.92;;;1.50;99.90;;;;;;5052176;28;20337;-82
2023/01/27 00:40:13;;;;;;;22.90;15.30;;;1.60;99.90;;;;;;5052295;28;20033;-84
2023/01/27 00:42:39;;;;;;;78.78;31.85;;;1.60;99.90;;;;;;5052699;28;20454;-84
2023/01/27 00:47:51;;;;;;;30.95;19.20;;;1.50;99.90;;;;;;5053174;28;20428;-84
2023/01/27 00:50:17;;;;;;;64.07;34.22;;;1.60;99.90;;;;;;5052291;28;20087;-83
2023/01/27 00:52:43;;;;;;;97.90;50.45;;;1.70;99.90;;;;;;5051532;28;20047;-84
2023/01/27 00:55:09;;;;;;;38.90;22.33;;;1.80;99.90;;;;;;5052087;28;20036;-84
2023/01/27 00:57:36;;;;;;;22.58;15.43;;;1.90;99.90;;;;;;5052603;28;20028;-83
2023/01/27 01:00:03;;;;;;;79.82;38.00;;;2.30;99.90;;;;;;5052508;28;20025;-84
2023/01/27 01:02:28;;;;;;;22.02;14.95;;;1.80;99.90;;;;;;5052570;28;20020;-84
2023/01/27 01:04:54;;;;;;;21.67;14.32;;;1.90;99.90;;;;;;5052391;28;20051;-84
2023/01/27 01:07:19;;;;;;;64.43;42.53;;;2.20;99.90;;;;;;5051458;28;20045;-84
2023/01/27 01:09:45;;;;;;;21.58;13.85;;;1.70;99.90;;;;;;5052279;28;20378;-84
2023/01/27 01:12:11;;;;;;;23.08;15.68;;;1.60;99.90;;;;;;5052193;28;20083;-84
2023/01/27 01:14:36;;;;;;;32.78;20.58;;;1.70;99.90;;;;;;5052834;28;20068;-84
2023/01/27 01:17:02;;;;;;;23.88;14.95;;;1.50;99.90;;;;;;5052006;28;20540;-84
2023/01/27 01:19:29;;;;;;;61.40;36.22;;;1.60;99.90;;;;;;5034561;28;20025;-84
2023/01/27 01:21:55;;;;;;;21.98;15.60;;;1.70;99.90;;;;;;5052041;28;20025;-84
2023/01/27 01:24:21;;;;;;;21.45;14.57;;;1.60;99.90;;;;;;5052106;28;20075;-84
2023/01/27 01:26:46;;;;;;;30.38;20.80;;;1.60;99.90;;;;;;5051589;28;20044;-84
2023/01/27 01:29:12;;;;;;;24.70;16.20;;;1.60;99.90;;;;;;5051606;28;20029;-84
2023/01/27 01:31:37;;;;;;;23.17;16.00;;;1.60;99.90;;;;;;5051720;28;20025;-84
2023/01/27 01:34:03;;;;;;;36.35;22.92;;;1.50;99.90;;;;;;5051564;28;20044;-84
2023/01/27 01:36:29;;;;;;;49.88;33.95;;;1.60;99.90;;;;;;5051475;28;20017;-83
2023/01/27 01:38:55;;;;;;;43.00;28.30;;;1.60;99.90;;;;;;5052054;28;20025;-84
2023/01/27 01:41:22;;;;;;;25.63;16.70;;;1.60;99.90;;;;;;5052041;28;20021;-84
2023/01/27 01:43:49;;;;;;;28.55;19.42;;;1.70;99.90;;;;;;5043081;28;20412;-84
2023/01/27 01:46:15;;;;;;;36.40;22.05;;;1.50;99.90;;;;;;5051641;28;20180;-84
2023/01/27 01:48:46;;;;;;;37.67;24.50;;;1.40;99.90;;;;;;5051966;28;20079;-84
2023/01/27 01:51:14;;;;;;;25.02;17.10;;;1.50;99.90;;;;;;5051739;28;20481;-84
2023/01/27 01:53:46;;;;;;;23.67;16.55;;;2.00;99.90;;;;;;5051684;28;20036;-84
2023/01/27 01:56:19;;;;;;;34.67;23.17;;;1.60;99.90;;;;;;5051678;28;20024;-84
2023/01/27 01:58:46;;;;;;;27.60;18.83;;;2.20;99.90;;;;;;5051412;28;20032;-84
2023/01/27 02:01:14;;;;;;;22.52;15.48;;;1.50;99.90;;;;;;5046403;28;20025;-84
2023/01/27 02:03:43;;;;;;;47.45;31.25;;;1.60;99.90;;;;;;5051764;28;20033;-84
2023/01/27 02:06:10;;;;;;;33.92;22.48;;;1.70;99.90;;;;;;5050898;28;20048;-84
2023/01/27 02:08:40;;;;;;;24.67;17.00;;;1.60;99.90;;;;;;5051607;28;20037;-83
2023/01/27 02:11:08;;;;;;;26.63;18.92;;;1.70;99.90;;;;;;5051761;28;20036;-84
2023/01/27 02:13:33;;;;;;;24.92;17.90;;;1.80;99.90;;;;;;5051137;28;20428;-84
2023/01/27 02:15:59;;;;;;;34.13;21.73;;;1.70;99.90;;;;;;5051889;28;20040;-84
2023/01/27 02:18:26;;;;;;;27.75;17.92;;;1.60;99.90;;;;;;5052834;28;20025;-84
2023/01/27 02:20:53;;;;;;;26.63;17.70;;;1.50;99.90;;;;;;5056159;28;20039;-84
2023/01/27 02:23:31;;;;;;;48.58;29.98;;;1.60;99.90;;;;;;5055160;28;20079;-84
2023/01/27 02:26:16;;;;;;;31.77;20.80;;;1.80;99.90;;;;;;5053143;28;20021;-84
2023/01/27 02:28:41;;;;;;;42.15;25.65;;;1.70;99.90;;;;;;5055277;28;20029;-84
2023/01/27 02:31:07;;;;;;;97.53;53.95;;;1.60;99.90;;;;;;5055130;28;20056;-84
2023/01/27 02:33:33;;;;;;;34.33;21.70;;;1.60;99.90;;;;;;5054826;28;20083;-84
2023/01/27 02:36:07;;;;;;;29.35;18.98;;;1.70;99.90;;;;;;5054962;28;20083;-84
2023/01/27 02:38:52;;;;;;;62.63;39.22;;;1.80;99.90;;;;;;5054916;28;20371;-84
2023/01/27 02:41:26;;;;;;;38.35;24.35;;;1.80;99.90;;;;;;5055002;28;20029;-84
2023/01/27 02:43:52;;;;;;;26.85;18.33;;;1.80;99.90;;;;;;5054889;28;20087;-84
2023/01/27 02:46:18;;;;;;;34.20;23.75;;;1.80;99.90;;;;;;5054859;28;20036;-83
2023/01/27 02:48:44;;;;;;;50.05;30.67;;;1.80;99.90;;;;;;5054345;28;20553;-84
2023/01/27 02:51:10;;;;;;;32.22;20.80;;;1.70;99.90;;;;;;5054876;28;20488;-84
2023/01/27 02:53:37;;;;;;;52.63;33.38;;;1.90;99.90;;;;;;5054955;28;20388;-84
2023/01/27 02:56:03;;;;;;;49.63;31.00;;;1.80;99.90;;;;;;5054390;28;20131;-84
2023/01/27 02:58:29;;;;;;;43.53;26.38;;;1.70;99.90;;;;;;5054675;28;20032;-84
2023/01/27 03:00:54;;;;;;;39.45;25.95;;;1.50;99.90;;;;;;5055016;28;20033;-84
2023/01/27 03:03:20;;;;;;;86.60;47.42;;;1.50;99.90;;;;;;5053833;28;20032;-84
2023/01/27 03:05:46;;;;;;;44.05;26.27;;;1.60;99.90;;;;;;5054520;28;20045;-84
2023/01/27 03:08:11;;;;;;;63.45;38.28;;;1.40;99.90;;;;;;5054426;28;20053;-83
2023/01/27 03:10:37;;;;;;;66.57;36.72;;;1.80;99.90;;;;;;5054497;28;20033;-84
2023/01/27 03:13:03;;;;;;;96.07;51.42;;;1.70;99.90;;;;;;5054491;28;20476;-84
2023/01/27 03:18:15;;;;;;;63.53;37.05;;;1.50;99.90;;;;;;5053958;28;20031;-84
2023/01/27 03:20:46;;;;;;;28.60;18.35;;;2.00;99.90;;;;;;5055376;28;20550;-83
2023/01/27 03:23:13;;;;;;;42.08;24.35;;;1.40;99.90;;;;;;5053791;28;20017;-84
2023/01/27 03:25:46;;;;;;;40.97;25.08;;;1.30;99.90;;;;;;5036562;28;20527;-84
2023/01/27 03:28:13;;;;;;;26.45;17.27;;;1.50;99.90;;;;;;5054522;28;20037;-83
2023/01/27 03:30:39;;;;;;;33.00;20.60;;;1.40;99.90;;;;;;5053201;28;20370;-83
2023/01/27 03:33:06;;;;;;;27.60;18.05;;;1.60;99.90;;;;;;5054155;28;20048;-84
2023/01/27 03:35:37;;;;;;;59.38;31.33;;;1.60;99.90;;;;;;5053868;28;20103;-84
2023/01/27 03:46:24;;;;;;;49.92;27.08;;;1.60;99.90;;;;;;5053247;28;20044;-83
2023/01/27 03:48:54;;;;;;;27.80;18.67;;;1.50;99.90;;;;;;5053758;28;20026;-84
2023/01/27 03:51:23;;;;;;;28.58;18.70;;;2.00;99.90;;;;;;5053845;28;20029;-84
2023/01/27 03:53:49;;;;;;;32.38;19.60;;;1.50;99.90;;;;;;5037187;28;20017;-84
2023/01/27 03:56:16;;;;;;;44.20;24.75;;;1.60;99.90;;;;;;5053254;28;20036;-83
2023/01/27 03:58:43;;;;;;;32.35;19.80;;;1.50;99.90;;;;;;5053514;28;20033;-84
2023/01/27 04:01:20;;;;;;;40.38;22.52;;;1.40;99.90;;;;;;5053395;28;20090;-83
2023/01/27 04:06:51;;;;;;;34.38;21.00;;;1.60;99.90;;;;;;5053527;28;20087;-83
2023/01/27 04:09:28;;;;;;;39.15;23.73;;;1.60;99.90;;;;;;5053250;28;20033;-83
2023/01/27 04:11:57;;;;;;;27.77;18.45;;;1.70;99.90;;;;;;5053718;28;20029;-83
2023/01/27 04:14:37;;;;;;;27.85;17.95;;;1.80;99.90;;;;;;5053065;28;20116;-83
2023/01/27 04:17:04;;;;;;;29.65;18.55;;;1.70;99.90;;;;;;5053158;28;20067;-83
2023/01/27 04:19:30;;;;;;;27.63;18.48;;;1.70;99.90;;;;;;5053104;28;20087;-83
2023/01/27 04:21:57;;;;;;;28.55;18.20;;;1.50;99.90;;;;;;5053209;28;20059;-83
2023/01/27 04:24:23;;;;;;;27.92;18.00;;;1.60;99.90;;;;;;5053238;28;20028;-83
2023/01/27 04:27:10;;;;;;;27.48;18.50;;;2.10;99.90;;;;;;5053323;28;20393;-83
2023/01/27 04:29:39;;;;;;;26.30;16.08;;;1.60;99.90;;;;;;5053294;28;20098;-83
2023/01/27 04:32:08;;;;;;;27.88;18.10;;;1.30;99.90;;;;;;5052298;28;20052;-83
2023/01/27 04:34:34;;;;;;;28.38;19.33;;;1.50;99.90;;;;;;5053101;28;20024;-83
2023/01/27 04:37:02;;;;;;;27.90;18.70;;;1.60;99.90;;;;;;5052970;28;20481;-83
2023/01/27 04:39:28;;;;;;;28.63;17.95;;;1.40;99.90;;;;;;5053031;28;20033;-83
2023/01/27 04:41:55;;;;;;;27.92;17.70;;;1.50;99.90;;;;;;5052865;28;20036;-83
2023/01/27 04:44:21;;;;;;;30.05;19.42;;;1.10;99.90;;;;;;5051721;28;20033;-83
2023/01/27 04:46:47;;;;;;;29.27;19.55;;;1.20;99.90;;;;;;5052845;28;20040;-83
2023/01/27 04:49:13;;;;;;;30.02;19.67;;;1.20;99.90;;;;;;5053244;28;20037;-84
2023/01/27 04:51:38;;;;;;;29.17;18.15;;;1.10;99.90;;;;;;5052865;28;20361;-83
2023/01/27 04:54:05;;;;;;;25.40;16.58;;;1.20;99.90;;;;;;5052440;28;20420;-84
2023/01/27 04:56:32;;;;;;;28.88;18.95;;;1.00;99.90;;;;;;5052478;28;20040;-84
2023/01/27 04:59:03;;;;;;;29.65;18.42;;;1.10;99.90;;;;;;5051955;28;20029;-83
2023/01/27 05:01:29;;;;;;;29.58;18.30;;;1.00;99.90;;;;;;5052547;28;20104;-83
2023/01/27 05:03:55;;;;;;;30.67;19.33;;;0.90;99.90;;;;;;5051865;28;20179;-84
2023/01/27 05:06:21;;;;;;;29.08;18.60;;;1.00;99.90;;;;;;5052373;28;20271;-83
2023/01/27 05:08:47;;;;;;;28.63;18.77;;;1.10;99.90;;;;;;5051801;28;20032;-84
2023/01/27 05:11:13;;;;;;;29.35;19.23;;;1.30;99.90;;;;;;5052822;28;20075;-84
2023/01/27 05:13:39;;;;;;;26.13;16.10;;;1.20;99.90;;;;;;5051681;28;20025;-83
2023/01/27 05:16:10;;;;;;;30.02;18.88;;;1.10;99.90;;;;;;5051536;28;20023;-83
2023/01/27 05:18:37;;;;;;;29.08;19.02;;;1.10;99.90;;;;;;5052225;28;20033;-84
2023/01/27 05:21:03;;;;;;;28.05;16.67;;;1.10;99.90;;;;;;5052308;28;20025;-83
2023/01/27 05:23:35;;;;;;;27.88;18.10;;;1.20;99.90;;;;;;5052184;28;20440;-84
2023/01/27 05:26:12;;;;;;;29.40;19.25;;;1.10;99.90;;;;;;5052262;28;20330;-83
2023/01/27 05:28:43;;;;;;;32.75;19.83;;;1.00;99.90;;;;;;5051737;28;20037;-84
2023/01/27 05:31:18;;;;;;;30.60;18.73;;;1.10;99.90;;;;;;5051992;28;20024;-84
2023/01/27 05:33:44;;;;;;;29.85;19.58;;;1.20;99.90;;;;;;5051956;28;20077;-84
2023/01/27 05:36:16;;;;;;;33.47;20.27;;;1.20;99.90;;;;;;5051824;28;20021;-83
2023/01/27 05:38:42;;;;;;;31.02;18.98;;;1.30;99.90;;;;;;5051871;28;20049;-83
2023/01/27 05:41:09;;;;;;;30.58;20.30;;;1.70;99.90;;;;;;5051619;28;20508;-84
2023/01/27 05:43:40;;;;;;;35.90;23.02;;;1.10;99.90;;;;;;5051503;28;20096;-83
2023/01/27 05:46:07;;;;;;;29.90;19.13;;;1.20;99.90;;;;;;5051802;28;20032;-84
2023/01/27 05:48:41;;;;;;;31.67;19.20;;;1.30;99.90;;;;;;5050867;28;20400;-83
2023/01/27 05:51:07;;;;;;;30.17;18.92;;;1.10;99.90;;;;;;5051559;28;20558;-83
2023/01/27 05:53:33;;;;;;;31.67;20.38;;;1.10;99.90;;;;;;5056600;28;20036;-83
2023/01/27 05:55:59;;;;;;;36.53;23.63;;;1.00;99.90;;;;;;5058677;28;20021;-84
2023/01/27 05:58:25;;;;;;;30.35;20.25;;;1.10;99.90;;;;;;5057153;28;20074;-83
2023/01/27 06:00:52;;;;;;;32.08;21.55;;;1.70;99.90;;;;;;5057752;28;20021;-83
2023/01/27 06:03:18;;;;;;;33.00;21.20;;;1.20;99.90;;;;;;5058176;28;20036;-84
2023/01/27 06:05:55;;;;;;;36.70;23.67;;;1.30;99.90;;;;;;5058534;28;20515;-84
2023/01/27 06:08:22;;;;;;;32.95;21.30;;;1.70;99.90;;;;;;5057769;28;20041;-84
2023/01/27 06:10:48;;;;;;;34.15;22.60;;;1.40;99.90;;;;;;5058394;28;20033;-84
2023/01/27 06:13:14;;;;;;;32.95;21.35;;;1.50;99.90;;;;;;5058041;28;20028;-83
2023/01/27 06:15:41;;;;;;;33.67;21.50;;;1.40;99.90;;;;;;5057348;28;20405;-84
2023/01/27 06:18:07;;;;;;;29.17;19.15;;;1.30;99.90;;;;;;5043350;28;20404;-83
2023/01/27 06:20:32;;;;;;;42.78;24.48;;;1.30;99.90;;;;;;5057501;28;20104;-84
2023/01/27 06:22:58;;;;;;;168.43;67.90;;;1.30;99.90;;;;;;5057350;28;20036;-83
2023/01/27 06:25:24;;;;;;;320.50;103.97;;;1.30;99.90;;;;;;5057312;28;20370;-84
2023/01/27 06:27:53;;;;;;;156.88;57.78;;;1.70;99.90;;;;;;5057183;28;20037;-83
2023/01/27 06:30:19;;;;;;;118.22;50.60;;;1.30;99.90;;;;;;5057954;28;20068;-84
2023/01/27 06:32:45;;;;;;;45.83;27.67;;;1.30;99.90;;;;;;5058005;28;20461;-84
2023/01/27 06:35:11;;;;;;;65.70;37.97;;;1.30;99.90;;;;;;5058151;28;20103;-84
2023/01/27 06:37:37;;;;;;;82.07;47.88;;;1.40;99.90;;;;;;5057601;28;20443;-84
2023/01/27 06:40:04;;;;;;;61.22;34.22;;;1.50;99.90;;;;;;5057949;28;20420;-84
2023/01/27 06:42:30;;;;;;;68.88;37.58;;;1.50;99.90;;;;;;5057585;28;20501;-84
2023/01/27 06:44:56;;;;;;;68.45;37.03;;;1.60;99.90;;;;;;5057182;28;20108;-84
2023/01/27 06:47:21;;;;;;;37.65;24.60;;;1.30;99.90;;;;;;5058092;28;20057;-84
2023/01/27 06:49:47;;;;;;;36.33;23.60;;;1.40;99.90;;;;;;5057561;28;20032;-83
2023/01/27 06:52:12;;;;;;;31.15;20.90;;;1.30;99.90;;;;;;5057440;28;20061;-84
2023/01/27 06:54:38;;;;;;;39.45;23.48;;;1.30;99.90;;;;;;5057219;28;20409;-84
2023/01/27 06:57:04;;;;;;;46.42;28.98;;;1.20;99.90;;;;;;5057854;28;20021;-84
2023/01/27 06:59:29;;;;;;;32.38;21.65;;;1.30;99.90;;;;;;5058071;28;20389;-85
2023/01/27 07:01:55;;;;;;;42.38;27.42;;;1.40;99.90;;;;;;5057210;28;20032;-85
2023/01/27 07:04:21;;;;;;;37.25;25.17;;;1.80;99.90;;;;;;5055330;28;20032;-84
2023/01/27 07:06:46;;;;;;;33.28;20.90;;;1.80;99.90;;;;;;5054338;28;20060;-84
2023/01/27 07:09:12;;;;;;;32.63;20.83;;;1.80;99.90;;;;;;5054424;28;20017;-84
2023/01/27 07:11:38;;;;;;;30.15;20.13;;;2.30;99.90;;;;;;5054905;28;20114;-84
2023/01/27 07:14:04;;;;;;;32.50;22.50;;;2.50;99.90;;;;;;5054447;28;20033;-84
2023/01/27 07:16:29;;;;;;;35.30;22.75;;;1.90;99.90;;;;;;5054589;28;20116;-84
2023/01/27 07:18:55;;;;;;;32.38;22.23;;;2.50;99.90;;;;;;5054439;28;20422;-84
2023/01/27 07:21:20;;;;;;;36.15;25.10;;;2.00;99.90;;;;;;5055055;28;20054;-84
2023/01/27 07:23:46;;;;;;;33.67;21.08;;;2.00;99.90;;;;;;5053356;28;20112;-83
2023/01/27 07:26:12;;;;;;;32.38;21.45;;;2.40;99.90;;;;;;5053303;28;20495;-84
2023/01/27 07:28:37;;;;;;;28.58;19.85;;;2.00;99.90;;;;;;5053684;28;20036;-84
2023/01/27 07:31:03;;;;;;;33.58;22.33;;;2.30;99.90;;;;;;5054750;28;20035;-84
2023/01/27 07:33:28;;;;;;;30.55;21.13;;;1.80;99.90;;;;;;5053955;28;20128;-84
2023/01/27 07:35:54;;;;;;;29.77;19.60;;;1.60;99.90;;;;;;5055121;28;20577;-84
2023/01/27 07:38:20;;;;;;;31.42;21.40;;;1.70;99.90;;;;;;5053874;28;20029;-84
2023/01/27 07:40:46;;;;;;;30.23;19.50;;;1.80;99.90;;;;;;5054215;28;20075;-84
2023/01/27 07:43:11;;;;;;;32.72;22.60;;;1.90;99.90;;;;;;5054112;28;20025;-84
2023/01/27 07:45:37;;;;;;;32.20;21.40;;;2.00;99.90;;;;;;5036197;28;20064;-84
2023/01/27 07:48:07;;;;;;;30.80;21.40;;;2.50;99.90;;;;;;5053962;28;20478;-84
2023/01/27 07:50:34;;;;;;;30.42;19.98;;;2.00;99.90;;;;;;5054064;28;20043;-84
2023/01/27 07:53:02;;;;;;;34.03;21.27;;;2.20;99.90;;;;;;5053907;28;20035;-85
2023/01/27 07:55:28;;;;;;;39.42;26.17;;;1.90;99.90;;;;;;5053813;28;20021;-84
2023/01/27 07:57:54;;;;;;;32.70;20.40;;;2.00;99.90;;;;;;5053860;28;20032;-85
2023/01/27 08:00:20;;;;;;;31.85;20.95;;;2.00;99.90;;;;;;5054245;28;20013;-84
2023/01/27 08:02:53;;;;;;;33.15;20.55;;;1.90;99.90;;;;;;5053378;28;20040;-85
2023/01/27 08:05:19;;;;;;;29.50;19.42;;;2.10;99.90;;;;;;5053983;28;20028;-84
2023/01/27 08:07:45;;;;;;;30.00;20.48;;;2.00;99.90;;;;;;5053174;28;20120;-84
2023/01/27 08:10:11;;;;;;;32.17;19.83;;;2.50;99.90;;;;;;5053855;28;20040;-85
2023/01/27 08:12:37;;;;;;;31.45;19.92;;;2.40;99.90;;;;;;5053588;28;20492;-85
2023/01/27 08:15:04;;;;;;;30.38;20.45;;;2.00;99.90;;;;;;5053835;28;20021;-84
2023/01/27 08:17:29;;;;;;;27.50;18.42;;;2.10;99.90;;;;;;5052865;28;20033;-85
2023/01/27 08:19:55;;;;;;;27.75;18.60;;;2.20;99.90;;;;;;5053598;28;20021;-85
2023/01/27 08:22:21;;;;;;;30.17;19.77;;;2.70;99.90;;;;;;5053549;28;20025;-85
2023/01/27 08:24:50;;;;;;;27.58;19.13;;;2.20;99.90;;;;;;5053349;28;20115;-84
2023/01/27 08:27:16;;;;;;;33.47;20.05;;;2.50;99.90;;;;;;5053183;28;20033;-85
2023/01/27 08:29:42;;;;;;;34.60;20.35;;;2.50;99.90;;;;;;5053112;28;20080;-85
2023/01/27 08:32:09;;;;;;;30.33;19.33;;;2.00;99.90;;;;;;5052873;28;20048;-85
2023/01/27 08:34:35;;;;;;;28.77;18.63;;;2.00;99.90;;;;;;5053054;28;20029;-85
2023/01/27 08:37:01;;;;;;;32.15;20.38;;;2.60;99.90;;;;;;5052787;28;20024;-84
2023/01/27 08:39:26;;;;;;;31.60;20.25;;;2.00;99.90;;;;;;5053313;28;20021;-84
2023/01/27 08:41:52;;;;;;;37.80;24.50;;;2.50;99.90;;;;;;5053261;28;20100;-85
2023/01/27 08:44:18;;;;;;;31.48;21.02;;;2.50;99.90;;;;;;5053616;28;20029;-85
2023/01/27 08:46:43;;;;;;;32.53;22.02;;;2.30;99.90;;;;;;5053044;28;20040;-85
2023/01/27 08:49:09;;;;;;;33.20;22.25;;;2.20;99.90;;;;;;5052915;28;20029;-85
2023/01/27 08:51:35;;;;;;;33.47;20.70;;;2.20;99.90;;;;;;5052846;28;20031;-85
2023/01/27 08:54:00;;;;;;;28.70;18.83;;;2.10;99.90;;;;;;5052825;28;20021;-84
2023/01/27 08:56:26;;;;;;;28.23;19.73;;;1.90;99.90;;;;;;5052701;28;20032;-85
2023/01/27 08:58:52;;;;;;;28.35;18.88;;;2.40;99.90;;;;;;5052756;28;20025;-85
2023/01/27 09:01:19;;;;;;;30.42;19.02;;;2.10;99.90;;;;;;5053181;28;20021;-85
2023/01/27 09:03:45;;;;;;;28.08;18.27;;;2.10;99.90;;;;;;5052565;28;20040;-84
2023/01/27 09:06:11;;;;;;;29.60;18.15;;;2.60;99.90;;;;;;5052122;28;20071;-85
2023/01/27 09:08:38;;;;;;;24.55;16.63;;;2.60;99.90;;;;;;5052584;28;20126;-85
2023/01/27 09:11:12;;;;;;;24.42;17.13;;;2.50;99.90;;;;;;5052786;28;20025;-85
2023/01/27 09:13:38;;;;;;;25.58;17.52;;;2.20;99.90;;;;;;5052458;28;20025;-85
2023/01/27 09:16:04;;;;;;;24.55;16.83;;;2.70;99.90;;;;;;5052022;28;20078;-85
2023/01/27 09:18:29;;;;;;;25.52;17.38;;;2.30;99.90;;;;;;5052271;28;20040;-84
2023/01/27 09:20:55;;;;;;;29.45;18.33;;;2.30;99.90;;;;;;5051842;28;20036;-85
2023/01/27 09:23:21;;;;;;;27.77;18.20;;;2.80;99.90;;;;;;5052459;28;20021;-84
2023/01/27 09:25:46;;;;;;;27.15;18.40;;;2.70;99.90;;;;;;5052385;28;20033;-85
2023/01/27 09:28:18;;;;;;;25.00;16.98;;;2.20;99.90;;;;;;5051702;28;20397;-84
2023/01/27 09:30:47;;;;;;;25.05;18.05;;;2.70;99.90;;;;;;5052225;28;20079;-85
2023/01/27 09:33:13;;;;;;;50.92;39.33;;;2.50;99.90;;;;;;5052274;28;20041;-84
2023/01/27 09:35:47;;;;;;;25.25;17.60;;;2.50;99.90;;;;;;5051795;28;20060;-85
2023/01/27 09:38:17;;;;;;;41.35;23.02;;;3.00;99.90;;;;;;5052380;28;20107;-85
2023/01/27 09:40:54;;;;;;;43.72;23.67;;;2.80;99.90;;;;;;5052170;28;20048;-85
2023/01/27 09:43:23;;;;;;;178.02;79.30;;;2.40;99.90;;;;;;5052136;28;20040;-85
2023/01/27 09:45:51;;;;;;;57.50;33.92;;;2.50;99.90;;;;;;5051982;28;20061;-85
2023/01/27 09:48:26;;;;;;;29.63;20.23;;;2.80;99.90;;;;;;5052132;28;20079;-84
2023/01/27 09:51:00;;;;;;;35.55;22.80;;;2.40;99.90;;;;;;5051948;28;20071;-84
2023/01/27 09:53:54;;;;;;;26.00;17.52;;;2.70;99.90;;;;;;5052406;28;20033;-85
2023/01/27 09:56:53;;;;;;;37.78;27.73;;;2.40;99.90;;;;;;5033981;28;20107;-84
2023/01/27 09:59:49;;;;;;;26.60;17.52;;;2.40;99.90;;;;;;5051973;28;20033;-84
2023/01/27 10:02:30;;;;;;;28.08;18.88;;;2.50;99.90;;;;;;5051531;28;20060;-85
2023/01/27 10:05:01;;;;;;;25.27;18.35;;;2.50;99.90;;;;;;5051293;28;20127;-84
2023/01/27 10:07:35;;;;;;;45.50;33.33;;;2.70;99.90;;;;;;5052069;28;20041;-84
2023/01/27 10:10:27;;;;;;;30.77;21.70;;;2.50;99.90;;;;;;5051911;28;20025;-85
2023/01/27 10:13:08;;;;;;;24.27;17.27;;;2.30;99.90;;;;;;5051678;28;20033;-85
2023/01/27 10:16:02;;;;;;;35.85;26.48;;;2.40;99.90;;;;;;5051655;28;20071;-85
2023/01/27 10:18:57;;;;;;;30.77;21.73;;;2.40;99.90;;;;;;5051344;28;20033;-84
2023/01/27 10:21:50;;;;;;;33.03;22.55;;;2.60;99.90;;;;;;5051758;28;20116;-84
2023/01/27 10:24:27;;;;;;;49.08;32.33;;;2.60;99.90;;;;;;5051613;28;20025;-84
2023/01/27 10:27:10;;;;;;;25.23;17.35;;;2.40;99.90;;;;;;5051553;28;20436;-84
2023/01/27 10:29:54;;;;;;;25.20;16.88;;;2.30;99.90;;;;;;5051570;28;20103;-84
2023/01/27 10:32:40;;;;;;;31.42;20.50;;;2.40;99.90;;;;;;5051024;28;20037;-84
2023/01/27 10:35:30;;;;;;;30.83;21.50;;;2.50;99.90;;;;;;5051866;28;20164;-84
2023/01/27 10:38:25;;;;;;;92.80;68.75;;;2.70;99.90;;;;;;5051906;28;20473;-85
2023/01/27 10:41:31;;;;;;;51.20;36.65;;;2.70;99.90;;;;;;5051510;28;20033;-85
2023/01/27 10:44:09;;;;;;;46.88;30.60;;;2.80;99.90;;;;;;5055203;28;20473;-84
2023/01/27 10:47:07;;;;;;;34.88;26.27;;;2.60;99.90;;;;;;5055458;28;20051;-84
2023/01/27 10:49:48;;;;;;;29.42;21.00;;;2.50;99.90;;;;;;5055108;28;20033;-85
2023/01/27 10:52:19;;;;;;;35.00;28.10;;;2.50;99.90;;;;;;5055700;28;20553;-84
2023/01/27 10:55:04;;;;;;;23.80;15.80;;;2.60;99.90;;;;;;5055223;28;20071;-85
2023/01/27 10:57:36;;;;;;;28.10;20.55;;;2.90;99.90;;;;;;5055803;28;20116;-84
2023/01/27 11:00:13;;;;;;;29.52;21.30;;;2.80;99.90;;;;;;5055364;28;20118;-84
2023/01/27 11:02:46;;;;;;;39.60;30.55;;;2.60;99.90;;;;;;5054684;28;20040;-84
2023/01/27 11:05:19;;;;;;;26.50;20.27;;;2.60;99.90;;;;;;5054675;28;20485;-84
2023/01/27 11:08:10;;;;;;;22.73;15.63;;;2.70;99.90;;;;;;5055677;28;20116;-85
2023/01/27 11:11:43;;;;;;;23.33;16.10;;;2.90;99.90;;;;;;5054983;28;20045;-85
2023/01/27 11:13:29;;;;;;;20.73;15.48;;;3.30;99.90;;;;;;5054470;28;20055;-84
2023/01/27 11:15:56;;;;;;;20.95;14.85;;;3.00;99.90;;;;;;5054553;28;20376;-85
2023/01/27 11:18:24;;;;;;;20.67;15.18;;;3.30;99.90;;;;;;5054751;28;20111;-84
2023/01/27 11:20:54;;;;;;;20.58;14.73;;;3.30;99.90;;;;;;5054493;28;20029;-85
2023/01/27 11:23:25;;;;;;;22.10;15.55;;;3.30;99.90;;;;;;5054591;28;20044;-84
2023/01/27 11:26:09;;;;;;;22.45;14.98;;;2.90;99.90;;;;;;5054756;28;20460;-84
2023/01/27 11:28:46;;;;;;;20.20;14.70;;;2.80;99.90;;;;;;5055262;28;20037;-84
2023/01/27 11:31:48;;;;;;;21.98;15.68;;;2.90;99.90;;;;;;5054282;28;20712;-84
2023/01/27 11:34:13;;;;;;;23.85;15.73;;;3.00;99.90;;;;;;5054218;28;20044;-84
2023/01/27 11:36:39;;;;;;;20.75;15.13;;;3.20;99.90;;;;;;5054244;28;20024;-85
2023/01/27 11:39:05;;;;;;;22.10;14.82;;;3.20;99.90;;;;;;5054054;28;20028;-84
2023/01/27 11:41:38;;;;;;;34.38;24.58;;;3.10;99.90;;;;;;5054361;28;20078;-85
2023/01/27 11:44:18;;;;;;;23.83;14.82;;;3.00;99.90;;;;;;5054881;28;20037;-85
2023/01/27 11:46:46;;;;;;;31.25;22.33;;;3.10;99.90;;;;;;5054085;28;20060;-85
2023/01/27 11:49:17;;;;;;;24.20;15.68;;;3.40;99.90;;;;;;5053600;28;20033;-85
2023/01/27 11:51:43;;;;;;;26.63;18.13;;;3.20;99.90;;;;;;5053736;28;20112;-85
2023/01/27 11:54:21;;;;;;;35.67;24.92;;;3.50;99.90;;;;;;5053809;28;20531;-85
2023/01/27 11:56:49;;;;;;;23.58;15.20;;;3.20;99.90;;;;;;5054074;28;20036;-85
2023/01/27 11:59:38;;;;;;;21.65;15.45;;;3.30;99.90;;;;;;5053708;28;20100;-85
2023/01/27 12:02:07;;;;;;;23.42;16.80;;;3.20;99.90;;;;;;5053777;28;20116;-85
2023/01/27 12:04:47;;;;;;;20.90;14.88;;;3.40;99.90;;;;;;5053658;28;20482;-85
2023/01/27 12:07:46;;;;;;;145.95;84.57;;;3.60;99.90;;;;;;5053699;28;20112;-85
2023/01/27 12:10:39;;;;;;;49.85;29.38;;;3.10;99.90;;;;;;5049474;28;20037;-85
2023/01/27 12:13:19;;;;;;;82.07;49.67;;;3.10;99.90;;;;;;5053672;28;20052;-85
2023/01/27 12:15:51;;;;;;;21.50;15.65;;;3.50;99.90;;;;;;5053139;28;20025;-85
2023/01/27 12:18:17;;;;;;;19.92;14.30;;;3.50;99.90;;;;;;5053274;28;20104;-85
2023/01/27 12:20:45;;;;;;;20.33;15.10;;;3.30;99.90;;;;;;5053807;28;20268;-85
2023/01/27 12:23:28;;;;;;;20.45;14.68;;;3.50;99.90;;;;;;5053483;28;20028;-85
2023/01/27 12:25:57;;;;;;;21.77;15.32;;;3.10;99.90;;;;;;5053166;28;20029;-85
2023/01/27 12:28:46;;;;;;;20.55;14.25;;;3.00;99.90;;;;;;5052804;28;20476;-85
2023/01/27 12:31:13;;;;;;;19.20;13.77;;;3.00;99.90;;;;;;5053224;28;20029;-85
2023/01/27 12:33:44;;;;;;;20.60;15.07;;;3.10;99.90;;;;;;5054703;28;20060;-84
2023/01/27 12:36:16;;;;;;;20.13;13.65;;;3.20;99.90;;;;;;5053268;28;20036;-85
2023/01/27 12:38:51;;;;;;;19.67;13.57;;;3.00;99.90;;;;;;5053176;28;20029;-85
2023/01/27 12:41:32;;;;;;;23.35;14.52;;;3.00;99.90;;;;;;5053309;28;20048;-85
2023/01/27 12:44:17;;;;;;;20.77;13.77;;;3.20;99.90;;;;;;5052548;28;20473;-85
2023/01/27 12:47:03;;;;;;;20.17;14.10;;;3.40;99.90;;;;;;5053186;28;20083;-85
2023/01/27 12:49:39;;;;;;;19.35;13.43;;;3.60;99.90;;;;;;5053049;28;20036;-85
2023/01/27 12:52:08;;;;;;;20.38;13.85;;;3.50;99.90;;;;;;5034977;28;20417;-85
2023/01/27 12:54:35;;;;;;;22.63;15.82;;;3.30;99.90;;;;;;5052692;28;20021;-85
2023/01/27 12:57:10;;;;;;;18.73;13.93;;;3.10;99.90;;;;;;5052803;28;20070;-85
2023/01/27 12:59:44;;;;;;;18.63;13.95;;;3.40;99.90;;;;;;5052477;28;20461;-84
2023/01/27 13:02:22;;;;;;;17.90;12.73;;;3.60;99.90;;;;;;5052349;28;20029;-85
2023/01/27 13:04:54;;;;;;;20.38;14.00;;;3.30;99.90;;;;;;5052045;28;20435;-85
2023/01/27 13:07:26;;;;;;;29.15;20.67;;;3.30;99.90;;;;;;5052920;28;20119;-85
2023/01/27 13:10:01;;;;;;;20.60;15.18;;;3.40;99.90;;;;;;5052521;28;20029;-85
2023/01/27 13:12:29;;;;;;;17.90;13.35;;;3.40;99.90;;;;;;5052147;28;20025;-85
2023/01/27 13:14:58;;;;;;;26.40;17.48;;;3.40;99.90;;;;;;5052317;28;20116;-85